TAF SKRG
SKRG 081030Z 0812/0912 VRB02KT 5000 BR BKN008 BECMG 0813/0815 12010KT 9999 NSW SCT015 TEMPO 0820/0823 DZ SCT020TCU BECMG 0900/0902 VRB02KT TEMPO 0903/0906 DZ BKN010 TEMPO 0909/0912 4000 BCFG BKN005 TX23/0819Z TN13/0910Z=
METAR SKRG
SKRG 080500Z VRB02KT 9999 SCT010 SCT080 15/14 Q1025 NOSIG RMK A3027=
SKRG 080000Z 04003KT 9999 SCT012 SCT200 17/13 Q1023 NOSIG RMK A3023=
SKRG 062300Z 04004KT 9999 SCT017TCU 18/15 Q1024 NOSIG RMK TCU/E/SW A3024=
SKRG 060200Z VRB02KT 9999 BKN012 BKN200 16/15 Q1026 NOSIG RMK A3029=
SKRG 060100Z 34004KT 9999 SCT012 BKN200 16/14 Q1025 NOSIG RMK A3027=
WC SKRG
WS SKRG
WV SKRG